| Date | Time | Temp. (oF) | Dew Point (oF) | Rel. Hum. (%) | Press. (in.) | Wind Dir. | Wind Speed (mph) | Hourly Rainfall (in.) |
|
|---|---|---|---|---|---|---|---|---|---|
| 1 | 10/12 | 00:00 | 46 | 41 | 84 | 30.32 | N | 0 | 0.00 |
| 2 | 10/11 | 23:00 | 48 | 42 | 80 | 30.31 | ESE | 0 | 0.00 |
| 3 | 10/11 | 22:00 | 47 | 40 | 77 | 30.30 | ENE | 0 | 0.00 |
| 4 | 10/11 | 21:00 | 50 | 40 | 70 | 30.31 | NE | 0 | 0.00 |
| 5 | 10/11 | 20:00 | 53 | 40 | 62 | 30.30 | E | 0 | 0.00 |
| 6 | 10/11 | 19:00 | 57 | 39 | 53 | 30.29 | ESE | 0 | 0.00 |
| 7 | 10/11 | 18:00 | 61 | 39 | 45 | 30.28 | E | 0 | 0.00 |
| 8 | 10/11 | 17:00 | 65 | 37 | 37 | 30.28 | E | 3 | 0.00 |
| 9 | 10/11 | 16:00 | 66 | 38 | 36 | 30.29 | E | 2 | 0.00 |
| 10 | 10/11 | 15:00 | 66 | 38 | 36 | 30.31 | ESE | 0 | 0.00 |
| 11 | 10/11 | 14:00 | 66 | 41 | 41 | 30.33 | ENE | 0 | 0.00 |
| 12 | 10/11 | 13:00 | 62 | 38 | 42 | 30.37 | E | 6 | 0.00 |
| 13 | 10/11 | 12:00 | 61 | 41 | 48 | 30.40 | ENE | 4 | 0.00 |
| 14 | 10/11 | 11:00 | 56 | 40 | 57 | 30.40 | NNE | 2 | 0.00 |
| 15 | 10/11 | 10:00 | 50 | 42 | 74 | 30.41 | ENE | 6 | 0.00 |
| 16 | 10/11 | 09:00 | 42 | 40 | 96 | 30.41 | E | 0 | 0.00 |
| 17 | 10/11 | 08:00 | 34 | 32 | 96 | 30.39 | ESE | 0 | 0.00 |
| 18 | 10/11 | 07:00 | 34 | 32 | 95 | 30.38 | NNE | 0 | 0.00 |
| 19 | 10/11 | 06:00 | 34 | 32 | 93 | 30.38 | ESE | 0 | 0.00 |
| 20 | 10/11 | 05:00 | 35 | 32 | 92 | 30.36 | NE | 0 | 0.00 |
| 21 | 10/11 | 04:00 | 36 | 33 | 91 | 30.35 | ESE | 0 | 0.00 |
| 22 | 10/11 | 03:00 | 37 | 34 | 90 | 30.35 | ESE | 0 | 0.00 |
| 23 | 10/11 | 02:00 | 38 | 34 | 88 | 30.35 | SE | 0 | 0.00 |
| 24 | 10/11 | 01:00 | 40 | 36 | 86 | 30.33 | SSE | 0 | 0.00 |